createdAt,value
2023-09-17T00:04:10.737Z,19.48
2023-09-17T00:09:13.285Z,20.27
2023-09-17T00:14:15.688Z,29.27
2023-09-17T00:19:18.488Z,19.83
2023-09-17T00:24:20.932Z,16.55
2023-09-17T00:29:25.343Z,14.95
2023-09-17T00:34:27.486Z,17.38
2023-09-17T00:39:29.838Z,22.67
2023-09-17T00:44:31.914Z,14.68
2023-09-17T00:49:34.197Z,11.30
2023-09-17T00:54:36.429Z,20.00
2023-09-17T00:59:40.937Z,20.13
2023-09-17T01:04:51.305Z,13.57
2023-09-17T01:09:55.211Z,30.08
2023-09-17T01:14:57.482Z,17.17
2023-09-17T01:20:01.062Z,18.30
2023-09-17T01:25:14.911Z,19.63
2023-09-17T01:30:34.520Z,15.68
2023-09-17T01:35:51.059Z,11.60
2023-09-17T01:40:54.437Z,14.73
2023-09-17T01:45:57.455Z,13.85
2023-09-17T01:51:01.176Z,11.40
2023-09-17T01:56:03.471Z,13.45
2023-09-17T02:01:05.513Z,14.48
2023-09-17T02:06:07.760Z,12.88
2023-09-17T02:11:09.785Z,12.70
2023-09-17T02:16:12.016Z,13.27
2023-09-17T02:21:14.740Z,16.45
2023-09-17T02:26:16.946Z,10.65
2023-09-17T02:31:19.366Z,12.38
2023-09-17T02:36:21.485Z,12.75
2023-09-17T02:41:23.889Z,13.43
2023-09-17T02:46:26.654Z,13.57
2023-09-17T02:51:29.159Z,13.85
2023-09-17T02:56:31.510Z,7.30
2023-09-17T03:01:33.881Z,15.60
2023-09-17T03:06:37.010Z,14.32
2023-09-17T03:11:49.821Z,11.32
2023-09-17T03:16:52.210Z,9.32
2023-09-17T03:21:56.163Z,6.13
2023-09-17T03:26:59.860Z,11.35
2023-09-17T03:32:03.299Z,15.02
2023-09-17T03:37:05.710Z,9.95
2023-09-17T03:42:08.110Z,14.60
2023-09-17T03:47:10.415Z,14.13
2023-09-17T03:52:12.896Z,11.82
2023-09-17T03:57:14.995Z,14.98
2023-09-17T04:02:18.968Z,15.23
2023-09-17T04:07:21.246Z,9.15
2023-09-17T04:12:23.676Z,12.82
2023-09-17T04:17:33.349Z,12.43
2023-09-17T04:22:36.643Z,19.65
2023-09-17T04:27:41.712Z,13.18
2023-09-17T04:32:47.123Z,24.25
2023-09-17T04:37:51.155Z,16.83
2023-09-17T04:43:01.752Z,18.05
2023-09-17T04:48:04.749Z,23.65
2023-09-17T04:53:07.072Z,28.50
2023-09-17T04:58:09.413Z,18.20
2023-09-17T05:03:12.970Z,24.88
2023-09-17T05:08:18.281Z,24.83
2023-09-17T05:13:21.502Z,19.98
2023-09-17T05:18:24.770Z,24.63
2023-09-17T05:23:27.105Z,34.30
2023-09-17T05:28:34.628Z,23.23
2023-09-17T05:33:37.792Z,29.88
2023-09-17T05:38:39.962Z,19.42
2023-09-17T05:43:42.953Z,21.38
2023-09-17T05:48:53.191Z,22.35
2023-09-17T05:53:55.969Z,21.63
2023-09-17T05:58:58.499Z,15.43
2023-09-17T06:04:02.756Z,17.80
2023-09-17T06:09:05.208Z,18.08
2023-09-17T06:14:07.610Z,15.38
2023-09-17T06:19:10.492Z,14.23
2023-09-17T06:24:12.703Z,10.93
2023-09-17T06:29:15.238Z,10.85
2023-09-17T06:34:18.455Z,12.02
2023-09-17T06:39:20.643Z,12.98
2023-09-17T06:44:25.045Z,14.32
2023-09-17T06:49:27.033Z,12.80
2023-09-17T06:54:29.209Z,12.40
2023-09-17T06:59:31.544Z,14.25
2023-09-17T07:04:34.663Z,12.68
2023-09-17T07:09:36.924Z,16.48
2023-09-17T07:14:38.885Z,10.95
2023-09-17T07:19:40.955Z,12.52
2023-09-17T07:24:43.467Z,10.40
2023-09-17T07:29:46.950Z,12.85
2023-09-17T07:34:48.955Z,12.02
2023-09-17T07:40:00.059Z,10.15
2023-09-17T07:45:02.100Z,10.90
2023-09-17T07:50:05.258Z,10.43
2023-09-17T07:55:07.636Z,9.45
2023-09-17T08:00:13.350Z,10.10
2023-09-17T08:05:16.296Z,8.52
2023-09-17T08:10:18.953Z,6.25
2023-09-17T08:15:21.030Z,5.57
2023-09-17T08:20:24.005Z,4.78
2023-09-17T08:25:27.989Z,4.28
2023-09-17T08:30:50.176Z,4.72
2023-09-17T08:36:13.263Z,5.63
2023-09-17T08:41:15.563Z,5.38
2023-09-17T08:46:17.810Z,5.55
2023-09-17T08:51:20.742Z,4.50
2023-09-17T08:56:22.909Z,3.85
2023-09-17T09:01:28.161Z,2.80
2023-09-17T09:06:31.313Z,2.70
2023-09-17T09:11:36.278Z,2.10
2023-09-17T09:16:38.826Z,2.25
2023-09-17T09:21:40.899Z,2.45
2023-09-17T09:26:43.039Z,2.17
2023-09-17T09:31:47.010Z,2.35
2023-09-17T09:36:52.268Z,2.80
2023-09-17T09:41:54.399Z,1.70
2023-09-17T09:46:58.309Z,1.80
2023-09-17T09:52:00.865Z,1.80
2023-09-17T09:57:08.927Z,2.55
2023-09-17T10:02:13.532Z,1.67
2023-09-17T10:07:16.416Z,1.83
2023-09-17T10:12:18.541Z,3.40
2023-09-17T10:17:20.927Z,3.30
2023-09-17T10:22:23.918Z,2.17
2023-09-17T10:27:26.470Z,2.17
2023-09-17T10:32:30.245Z,2.42
2023-09-17T10:37:33.784Z,2.20
2023-09-17T10:42:36.485Z,3.00
2023-09-17T10:47:42.666Z,2.05
2023-09-17T10:52:44.799Z,2.35
2023-09-17T10:57:48.884Z,2.33
2023-09-17T11:02:53.883Z,2.17
2023-09-17T11:08:01.463Z,2.38
2023-09-17T11:13:06.124Z,1.80
2023-09-17T11:18:08.931Z,2.47
2023-09-17T11:23:12.445Z,1.92
2023-09-17T11:28:15.783Z,2.58
2023-09-17T11:33:17.733Z,1.90
2023-09-17T11:38:27.496Z,2.75
2023-09-17T11:43:29.937Z,1.80
2023-09-17T11:48:36.991Z,2.00
2023-09-17T11:53:59.528Z,2.17
2023-09-17T11:59:10.789Z,2.05
2023-09-17T12:04:13.668Z,2.83
2023-09-17T12:09:34.937Z,1.92
2023-09-17T12:14:37.645Z,1.75
2023-09-17T12:19:39.724Z,2.38
2023-09-17T12:24:49.011Z,2.53
2023-09-17T12:29:56.069Z,2.38
2023-09-17T12:34:58.745Z,2.05
2023-09-17T12:40:01.038Z,2.15
2023-09-17T12:45:03.375Z,1.63
2023-09-17T12:50:06.943Z,1.83
2023-09-17T12:55:09.312Z,1.23
2023-09-17T13:00:12.287Z,0.77
2023-09-17T13:05:21.578Z,1.25
2023-09-17T13:10:27.018Z,0.93
2023-09-17T13:15:30.046Z,1.35
2023-09-17T13:20:32.252Z,1.38
2023-09-17T13:25:35.952Z,1.27
2023-09-17T13:30:39.307Z,2.25
2023-09-17T13:35:45.988Z,2.63
2023-09-17T13:40:49.970Z,3.78
2023-09-17T13:46:00.045Z,3.13
2023-09-17T13:51:02.022Z,3.78
2023-09-17T13:56:04.307Z,5.35
2023-09-17T14:01:07.296Z,5.10
2023-09-17T14:06:10.995Z,4.85
2023-09-17T14:11:13.234Z,4.07
2023-09-17T14:16:15.371Z,4.80
2023-09-17T14:21:17.321Z,7.75
2023-09-17T14:26:19.325Z,5.78
2023-09-17T14:31:22.535Z,4.55
2023-09-17T14:36:24.482Z,4.25
2023-09-17T14:41:30.480Z,3.95
2023-09-17T14:46:39.452Z,4.55
2023-09-17T14:51:41.874Z,4.05
2023-09-17T14:56:43.971Z,4.18
2023-09-17T15:06:51.432Z,5.57
2023-09-17T15:11:54.663Z,5.57
2023-09-17T15:16:56.916Z,4.78
2023-09-17T15:21:58.957Z,4.57
2023-09-17T15:27:01.021Z,3.80
2023-09-17T15:32:03.398Z,4.28
2023-09-17T15:37:05.375Z,4.72
2023-09-17T15:42:07.354Z,3.55
2023-09-17T15:47:09.439Z,3.28
2023-09-17T15:52:11.421Z,3.95
2023-09-17T15:57:13.496Z,4.32
2023-09-17T16:02:15.878Z,3.35
2023-09-17T16:07:17.979Z,3.85
2023-09-17T16:12:21.503Z,2.83
2023-09-17T16:17:23.514Z,2.50
2023-09-17T16:22:26.632Z,3.17
2023-09-17T16:27:28.631Z,2.70
2023-09-17T16:32:32.750Z,3.13
2023-09-17T16:37:35.032Z,1.90
2023-09-17T16:42:37.358Z,3.05
2023-09-17T16:47:39.457Z,2.38
2023-09-17T16:52:42.054Z,2.28
2023-09-17T16:57:44.076Z,3.50
2023-09-17T17:02:46.143Z,2.20
2023-09-17T17:07:48.489Z,2.15
2023-09-17T17:12:50.587Z,2.10
2023-09-17T17:17:52.667Z,2.67
2023-09-17T17:22:54.714Z,2.22
2023-09-17T17:27:56.907Z,2.85
2023-09-17T17:32:58.939Z,3.00
2023-09-17T17:38:01.688Z,3.58
2023-09-17T17:43:03.740Z,3.42
2023-09-17T17:48:06.159Z,3.20
2023-09-17T17:53:08.418Z,4.20
2023-09-17T17:58:10.368Z,3.03
2023-09-17T18:03:12.498Z,3.97
2023-09-17T18:08:16.557Z,5.07
2023-09-17T18:13:19.041Z,4.25
2023-09-17T18:18:21.095Z,3.85
2023-09-17T18:23:24.554Z,3.83
2023-09-17T18:28:30.926Z,4.28
2023-09-17T18:33:34.369Z,4.63
2023-09-17T18:38:36.452Z,4.60
2023-09-17T18:43:38.802Z,4.43
2023-09-17T18:48:41.674Z,4.22
2023-09-17T18:53:43.631Z,4.50
2023-09-17T18:58:45.793Z,6.20
2023-09-17T19:03:48.340Z,4.18
2023-09-17T19:08:51.731Z,4.55
2023-09-17T19:13:54.923Z,3.63
2023-09-17T19:18:57.838Z,4.40
2023-09-17T19:24:00.973Z,4.78
2023-09-17T19:29:04.480Z,4.38
2023-09-17T19:34:06.635Z,4.20
2023-09-17T19:39:09.123Z,5.32
2023-09-17T19:44:14.260Z,5.05
2023-09-17T19:49:16.335Z,4.05
2023-09-17T19:54:18.352Z,6.10
2023-09-17T19:59:20.324Z,6.25
2023-09-17T20:04:22.383Z,6.28
2023-09-17T20:09:24.525Z,5.53
2023-09-17T20:14:26.788Z,5.70
2023-09-17T20:19:28.827Z,5.43
2023-09-17T20:24:30.800Z,6.18
2023-09-17T20:29:32.813Z,6.15
2023-09-17T20:34:35.008Z,6.60
2023-09-17T20:39:37.264Z,6.70
2023-09-17T20:44:39.433Z,5.88
2023-09-17T20:49:41.363Z,5.72
2023-09-17T20:54:43.332Z,5.93
2023-09-17T20:59:45.727Z,5.75
2023-09-17T21:04:47.734Z,7.78
2023-09-17T21:09:49.922Z,4.97
2023-09-17T21:14:52.206Z,4.50
2023-09-17T21:19:54.762Z,5.53
2023-09-17T21:24:56.758Z,7.10
2023-09-17T21:29:58.699Z,7.32
2023-09-17T21:35:01.041Z,8.30
2023-09-17T21:40:03.341Z,7.28
2023-09-17T21:45:06.290Z,7.63
2023-09-17T21:50:08.907Z,9.38
2023-09-17T21:55:10.962Z,9.90
2023-09-17T22:00:23.205Z,7.80
2023-09-17T22:05:25.299Z,8.88
2023-09-17T22:10:27.366Z,9.18
2023-09-17T22:15:29.302Z,8.38
2023-09-17T22:20:31.838Z,8.32
2023-09-17T22:25:33.903Z,8.13
2023-09-17T22:30:36.036Z,8.20
2023-09-17T22:35:38.265Z,7.93
2023-09-17T22:40:40.805Z,7.03
2023-09-17T22:45:42.729Z,6.82
2023-09-17T22:50:44.712Z,7.05
2023-09-17T22:55:47.008Z,6.95
2023-09-17T23:00:49.004Z,7.30
2023-09-17T23:05:51.087Z,6.90
2023-09-17T23:11:04.433Z,7.20
2023-09-17T23:16:06.488Z,6.53
2023-09-17T23:21:08.461Z,7.25
2023-09-17T23:26:13.605Z,7.05
2023-09-17T23:31:17.585Z,8.20
2023-09-17T23:36:22.793Z,6.93
2023-09-17T23:41:25.180Z,7.32
2023-09-17T23:46:27.247Z,7.60
2023-09-17T23:51:29.193Z,7.25
2023-09-17T23:56:31.576Z,6.85
